sensor_id;sensor_type;location;lat;lon;timestamp;P1;durP1;ratioP1;P2;durP2;ratioP2
25191;SDS011;13143;50.924;5.320;2023-05-18T00:02:11;18.20;;;4.18;;
25191;SDS011;13143;50.924;5.320;2023-05-18T00:04:49;18.48;;;3.90;;
25191;SDS011;13143;50.924;5.320;2023-05-18T00:07:16;17.10;;;4.32;;
25191;SDS011;13143;50.924;5.320;2023-05-18T00:10:04;14.30;;;4.07;;
25191;SDS011;13143;50.924;5.320;2023-05-18T00:12:38;15.88;;;4.40;;
25191;SDS011;13143;50.924;5.320;2023-05-18T00:15:13;18.77;;;3.95;;
25191;SDS011;13143;50.924;5.320;2023-05-18T00:17:46;16.92;;;4.15;;
25191;SDS011;13143;50.924;5.320;2023-05-18T00:20:20;22.13;;;4.93;;
25191;SDS011;13143;50.924;5.320;2023-05-18T00:23:02;24.55;;;5.05;;
25191;SDS011;13143;50.924;5.320;2023-05-18T00:25:48;23.45;;;5.18;;
25191;SDS011;13143;50.924;5.320;2023-05-18T00:28:17;22.45;;;4.10;;
25191;SDS011;13143;50.924;5.320;2023-05-18T00:31:00;15.20;;;4.10;;
25191;SDS011;13143;50.924;5.320;2023-05-18T00:33:29;14.77;;;4.20;;
25191;SDS011;13143;50.924;5.320;2023-05-18T00:36:04;22.55;;;5.03;;
25191;SDS011;13143;50.924;5.320;2023-05-18T00:38:40;23.02;;;4.70;;
25191;SDS011;13143;50.924;5.320;2023-05-18T00:41:24;14.15;;;4.35;;
25191;SDS011;13143;50.924;5.320;2023-05-18T00:43:55;19.77;;;4.00;;
25191;SDS011;13143;50.924;5.320;2023-05-18T00:46:43;20.98;;;4.38;;
25191;SDS011;13143;50.924;5.320;2023-05-18T00:49:10;18.33;;;4.88;;
25191;SDS011;13143;50.924;5.320;2023-05-18T00:51:47;20.63;;;4.97;;
25191;SDS011;13143;50.924;5.320;2023-05-18T00:54:32;18.85;;;4.90;;
25191;SDS011;13143;50.924;5.320;2023-05-18T00:57:03;21.35;;;5.20;;
25191;SDS011;13143;50.924;5.320;2023-05-18T00:59:37;20.20;;;4.78;;
25191;SDS011;13143;50.924;5.320;2023-05-18T01:02:17;17.90;;;4.90;;
25191;SDS011;13143;50.924;5.320;2023-05-18T01:04:50;16.95;;;4.80;;
25191;SDS011;13143;50.924;5.320;2023-05-18T01:07:22;15.90;;;4.97;;
25191;SDS011;13143;50.924;5.320;2023-05-18T01:09:52;19.98;;;4.65;;
25191;SDS011;13143;50.924;5.320;2023-05-18T01:15:22;16.88;;;4.50;;
25191;SDS011;13143;50.924;5.320;2023-05-18T01:18:10;17.75;;;5.05;;
25191;SDS011;13143;50.924;5.320;2023-05-18T01:20:56;18.98;;;4.57;;
25191;SDS011;13143;50.924;5.320;2023-05-18T01:26:16;15.77;;;4.97;;
25191;SDS011;13143;50.924;5.320;2023-05-18T01:29:08;13.45;;;4.47;;
25191;SDS011;13143;50.924;5.320;2023-05-18T01:31:38;21.30;;;4.57;;
25191;SDS011;13143;50.924;5.320;2023-05-18T01:34:07;19.25;;;4.68;;
25191;SDS011;13143;50.924;5.320;2023-05-18T01:36:34;16.35;;;4.07;;
25191;SDS011;13143;50.924;5.320;2023-05-18T01:39:00;21.02;;;4.68;;
25191;SDS011;13143;50.924;5.320;2023-05-18T01:41:27;24.77;;;5.47;;
25191;SDS011;13143;50.924;5.320;2023-05-18T01:49:34;16.83;;;4.65;;
25191;SDS011;13143;50.924;5.320;2023-05-18T01:52:03;18.33;;;4.63;;
25191;SDS011;13143;50.924;5.320;2023-05-18T01:54:35;16.30;;;4.88;;
25191;SDS011;13143;50.924;5.320;2023-05-18T01:57:06;20.70;;;5.65;;
25191;SDS011;13143;50.924;5.320;2023-05-18T01:59:46;22.42;;;5.38;;
25191;SDS011;13143;50.924;5.320;2023-05-18T02:02:19;17.40;;;5.15;;
25191;SDS011;13143;50.924;5.320;2023-05-18T02:04:48;16.67;;;4.78;;
25191;SDS011;13143;50.924;5.320;2023-05-18T02:07:38;21.70;;;5.25;;
25191;SDS011;13143;50.924;5.320;2023-05-18T02:10:17;24.30;;;5.28;;
25191;SDS011;13143;50.924;5.320;2023-05-18T02:12:52;19.73;;;5.15;;
25191;SDS011;13143;50.924;5.320;2023-05-18T02:15:18;19.25;;;5.60;;
25191;SDS011;13143;50.924;5.320;2023-05-18T02:18:02;17.30;;;4.30;;
25191;SDS011;13143;50.924;5.320;2023-05-18T02:20:28;26.67;;;5.40;;
25191;SDS011;13143;50.924;5.320;2023-05-18T02:23:10;14.27;;;4.72;;
25191;SDS011;13143;50.924;5.320;2023-05-18T02:25:52;17.63;;;5.10;;
25191;SDS011;13143;50.924;5.320;2023-05-18T02:28:28;15.98;;;4.68;;
25191;SDS011;13143;50.924;5.320;2023-05-18T02:31:03;21.95;;;5.38;;
25191;SDS011;13143;50.924;5.320;2023-05-18T02:33:33;20.25;;;5.00;;
25191;SDS011;13143;50.924;5.320;2023-05-18T02:36:05;15.93;;;4.85;;
25191;SDS011;13143;50.924;5.320;2023-05-18T02:38:40;22.17;;;5.60;;
25191;SDS011;13143;50.924;5.320;2023-05-18T02:41:39;17.70;;;4.75;;
25191;SDS011;13143;50.924;5.320;2023-05-18T02:44:06;21.75;;;4.82;;
25191;SDS011;13143;50.924;5.320;2023-05-18T02:46:44;20.80;;;5.55;;
25191;SDS011;13143;50.924;5.320;2023-05-18T02:49:16;23.40;;;5.45;;
25191;SDS011;13143;50.924;5.320;2023-05-18T02:52:06;17.73;;;4.65;;
25191;SDS011;13143;50.924;5.320;2023-05-18T02:54:35;18.08;;;4.95;;
25191;SDS011;13143;50.924;5.320;2023-05-18T02:57:22;21.55;;;5.05;;
25191;SDS011;13143;50.924;5.320;2023-05-18T02:59:48;22.38;;;5.70;;
25191;SDS011;13143;50.924;5.320;2023-05-18T03:02:36;15.80;;;5.50;;
25191;SDS011;13143;50.924;5.320;2023-05-18T03:05:07;24.17;;;5.60;;
25191;SDS011;13143;50.924;5.320;2023-05-18T03:07:36;16.98;;;5.10;;
25191;SDS011;13143;50.924;5.320;2023-05-18T03:10:06;23.15;;;5.63;;
25191;SDS011;13143;50.924;5.320;2023-05-18T03:12:45;26.30;;;4.93;;
25191;SDS011;13143;50.924;5.320;2023-05-18T03:15:11;18.60;;;5.53;;
25191;SDS011;13143;50.924;5.320;2023-05-18T03:17:41;16.77;;;5.63;;
25191;SDS011;13143;50.924;5.320;2023-05-18T03:20:08;21.23;;;5.32;;
25191;SDS011;13143;50.924;5.320;2023-05-18T03:23:10;22.45;;;5.72;;
25191;SDS011;13143;50.924;5.320;2023-05-18T03:25:43;19.10;;;5.32;;
25191;SDS011;13143;50.924;5.320;2023-05-18T03:28:33;16.67;;;5.90;;
25191;SDS011;13143;50.924;5.320;2023-05-18T03:31:02;15.07;;;5.03;;
25191;SDS011;13143;50.924;5.320;2023-05-18T03:33:47;16.48;;;5.75;;
25191;SDS011;13143;50.924;5.320;2023-05-18T03:36:19;18.50;;;5.70;;
25191;SDS011;13143;50.924;5.320;2023-05-18T03:38:53;26.63;;;5.90;;
25191;SDS011;13143;50.924;5.320;2023-05-18T03:41:20;18.52;;;5.13;;
25191;SDS011;13143;50.924;5.320;2023-05-18T03:44:22;20.60;;;5.40;;
25191;SDS011;13143;50.924;5.320;2023-05-18T03:46:48;17.05;;;4.97;;
25191;SDS011;13143;50.924;5.320;2023-05-18T03:49:14;19.83;;;5.05;;
25191;SDS011;13143;50.924;5.320;2023-05-18T03:52:04;16.40;;;5.35;;
25191;SDS011;13143;50.924;5.320;2023-05-18T03:54:31;26.70;;;5.45;;
25191;SDS011;13143;50.924;5.320;2023-05-18T03:56:58;20.33;;;5.97;;
25191;SDS011;13143;50.924;5.320;2023-05-18T03:59:28;21.30;;;7.00;;
25191;SDS011;13143;50.924;5.320;2023-05-18T04:02:06;20.95;;;5.32;;
25191;SDS011;13143;50.924;5.320;2023-05-18T04:04:33;20.60;;;5.32;;
25191;SDS011;13143;50.924;5.320;2023-05-18T04:07:00;30.48;;;5.55;;
25191;SDS011;13143;50.924;5.320;2023-05-18T04:09:30;16.85;;;5.45;;
25191;SDS011;13143;50.924;5.320;2023-05-18T04:11:58;15.38;;;5.40;;
25191;SDS011;13143;50.924;5.320;2023-05-18T04:14:24;17.73;;;5.53;;
25191;SDS011;13143;50.924;5.320;2023-05-18T04:16:52;18.88;;;5.65;;
25191;SDS011;13143;50.924;5.320;2023-05-18T04:19:22;18.67;;;5.88;;
25191;SDS011;13143;50.924;5.320;2023-05-18T04:21:57;17.38;;;5.53;;
25191;SDS011;13143;50.924;5.320;2023-05-18T04:24:38;20.70;;;5.00;;
25191;SDS011;13143;50.924;5.320;2023-05-18T04:27:05;21.17;;;5.68;;
25191;SDS011;13143;50.924;5.320;2023-05-18T04:29:53;19.48;;;6.05;;
25191;SDS011;13143;50.924;5.320;2023-05-18T04:32:43;18.75;;;5.45;;
25191;SDS011;13143;50.924;5.320;2023-05-18T04:35:22;13.98;;;5.35;;
25191;SDS011;13143;50.924;5.320;2023-05-18T04:38:03;17.90;;;5.95;;
25191;SDS011;13143;50.924;5.320;2023-05-18T04:40:32;17.15;;;5.85;;
25191;SDS011;13143;50.924;5.320;2023-05-18T04:43:07;17.38;;;5.95;;
25191;SDS011;13143;50.924;5.320;2023-05-18T04:45:43;21.02;;;6.53;;
25191;SDS011;13143;50.924;5.320;2023-05-18T04:48:23;19.23;;;6.20;;
25191;SDS011;13143;50.924;5.320;2023-05-18T04:50:59;15.02;;;5.53;;
25191;SDS011;13143;50.924;5.320;2023-05-18T04:53:53;18.00;;;6.85;;
25191;SDS011;13143;50.924;5.320;2023-05-18T04:56:26;18.90;;;5.75;;
25191;SDS011;13143;50.924;5.320;2023-05-18T04:58:55;23.73;;;6.07;;
25191;SDS011;13143;50.924;5.320;2023-05-18T05:01:32;19.75;;;6.38;;
25191;SDS011;13143;50.924;5.320;2023-05-18T05:04:02;20.52;;;5.75;;
25191;SDS011;13143;50.924;5.320;2023-05-18T05:06:49;13.88;;;5.45;;
25191;SDS011;13143;50.924;5.320;2023-05-18T05:09:27;21.77;;;6.25;;
25191;SDS011;13143;50.924;5.320;2023-05-18T05:12:00;20.10;;;6.95;;
25191;SDS011;13143;50.924;5.320;2023-05-18T05:14:45;17.58;;;6.25;;
25191;SDS011;13143;50.924;5.320;2023-05-18T05:17:12;16.52;;;6.13;;
25191;SDS011;13143;50.924;5.320;2023-05-18T05:19:39;22.77;;;6.75;;
25191;SDS011;13143;50.924;5.320;2023-05-18T05:22:09;16.08;;;5.90;;
25191;SDS011;13143;50.924;5.320;2023-05-18T05:24:50;17.45;;;5.88;;
25191;SDS011;13143;50.924;5.320;2023-05-18T05:27:29;25.27;;;7.00;;
25191;SDS011;13143;50.924;5.320;2023-05-18T05:30:17;17.25;;;6.30;;
25191;SDS011;13143;50.924;5.320;2023-05-18T05:32:52;19.70;;;6.00;;
25191;SDS011;13143;50.924;5.320;2023-05-18T05:35:19;19.55;;;5.28;;
25191;SDS011;13143;50.924;5.320;2023-05-18T05:37:54;24.10;;;6.47;;
25191;SDS011;13143;50.924;5.320;2023-05-18T05:40:32;18.20;;;5.78;;
25191;SDS011;13143;50.924;5.320;2023-05-18T05:43:20;20.13;;;6.30;;
25191;SDS011;13143;50.924;5.320;2023-05-18T05:45:50;18.05;;;6.20;;
25191;SDS011;13143;50.924;5.320;2023-05-18T05:48:34;25.63;;;6.25;;
25191;SDS011;13143;50.924;5.320;2023-05-18T05:51:03;22.45;;;6.40;;
25191;SDS011;13143;50.924;5.320;2023-05-18T05:53:36;15.15;;;6.18;;
25191;SDS011;13143;50.924;5.320;2023-05-18T05:56:06;23.63;;;6.38;;
25191;SDS011;13143;50.924;5.320;2023-05-18T05:58:42;23.42;;;7.18;;
25191;SDS011;13143;50.924;5.320;2023-05-18T06:01:09;18.52;;;6.40;;
25191;SDS011;13143;50.924;5.320;2023-05-18T06:03:41;19.55;;;6.53;;
25191;SDS011;13143;50.924;5.320;2023-05-18T06:06:09;16.70;;;6.47;;
25191;SDS011;13143;50.924;5.320;2023-05-18T06:08:39;21.75;;;6.15;;
25191;SDS011;13143;50.924;5.320;2023-05-18T06:11:05;19.52;;;6.53;;
25191;SDS011;13143;50.924;5.320;2023-05-18T06:13:31;19.98;;;6.32;;
25191;SDS011;13143;50.924;5.320;2023-05-18T06:15:58;18.73;;;6.13;;
25191;SDS011;13143;50.924;5.320;2023-05-18T06:18:24;19.85;;;6.32;;
25191;SDS011;13143;50.924;5.320;2023-05-18T06:21:06;19.55;;;6.55;;
25191;SDS011;13143;50.924;5.320;2023-05-18T06:23:38;17.60;;;6.53;;
25191;SDS011;13143;50.924;5.320;2023-05-18T06:26:19;21.05;;;6.40;;
25191;SDS011;13143;50.924;5.320;2023-05-18T06:28:58;16.75;;;6.32;;
25191;SDS011;13143;50.924;5.320;2023-05-18T06:31:34;22.45;;;6.63;;
25191;SDS011;13143;50.924;5.320;2023-05-18T06:34:27;20.35;;;6.40;;
25191;SDS011;13143;50.924;5.320;2023-05-18T06:36:53;23.58;;;6.40;;
25191;SDS011;13143;50.924;5.320;2023-05-18T06:39:22;24.13;;;7.05;;
25191;SDS011;13143;50.924;5.320;2023-05-18T06:41:57;20.45;;;7.03;;
25191;SDS011;13143;50.924;5.320;2023-05-18T06:44:27;21.27;;;6.30;;
25191;SDS011;13143;50.924;5.320;2023-05-18T06:49:44;17.30;;;6.32;;
25191;SDS011;13143;50.924;5.320;2023-05-18T06:52:20;20.35;;;6.70;;
25191;SDS011;13143;50.924;5.320;2023-05-18T06:54:49;17.33;;;7.05;;
25191;SDS011;13143;50.924;5.320;2023-05-18T06:57:48;20.00;;;6.55;;
25191;SDS011;13143;50.924;5.320;2023-05-18T07:00:16;24.48;;;8.02;;
25191;SDS011;13143;50.924;5.320;2023-05-18T07:03:28;23.98;;;6.72;;
25191;SDS011;13143;50.924;5.320;2023-05-18T07:05:32;20.70;;;8.05;;
25191;SDS011;13143;50.924;5.320;2023-05-18T07:08:02;24.88;;;7.93;;
25191;SDS011;13143;50.924;5.320;2023-05-18T07:10:54;19.17;;;7.10;;
25191;SDS011;13143;50.924;5.320;2023-05-18T07:13:25;19.65;;;7.47;;
25191;SDS011;13143;50.924;5.320;2023-05-18T07:16:13;18.08;;;7.35;;
25191;SDS011;13143;50.924;5.320;2023-05-18T07:18:44;23.00;;;7.20;;
25191;SDS011;13143;50.924;5.320;2023-05-18T07:21:16;26.20;;;7.80;;
25191;SDS011;13143;50.924;5.320;2023-05-18T07:23:52;23.10;;;7.22;;
25191;SDS011;13143;50.924;5.320;2023-05-18T07:26:21;27.80;;;7.97;;
25191;SDS011;13143;50.924;5.320;2023-05-18T07:29:05;13.52;;;6.40;;
25191;SDS011;13143;50.924;5.320;2023-05-18T07:31:35;15.85;;;6.53;;
25191;SDS011;13143;50.924;5.320;2023-05-18T07:34:23;14.95;;;7.43;;
25191;SDS011;13143;50.924;5.320;2023-05-18T07:36:54;22.15;;;7.53;;
25191;SDS011;13143;50.924;5.320;2023-05-18T07:39:23;18.63;;;8.30;;
25191;SDS011;13143;50.924;5.320;2023-05-18T07:42:10;23.33;;;7.18;;
25191;SDS011;13143;50.924;5.320;2023-05-18T07:44:40;25.75;;;7.05;;
25191;SDS011;13143;50.924;5.320;2023-05-18T07:47:17;16.55;;;7.28;;
25191;SDS011;13143;50.924;5.320;2023-05-18T07:49:58;17.25;;;6.75;;
25191;SDS011;13143;50.924;5.320;2023-05-18T07:52:42;23.02;;;6.53;;
25191;SDS011;13143;50.924;5.320;2023-05-18T07:55:11;23.08;;;6.55;;
25191;SDS011;13143;50.924;5.320;2023-05-18T07:57:49;16.90;;;5.90;;
25191;SDS011;13143;50.924;5.320;2023-05-18T08:00:16;18.15;;;5.53;;
25191;SDS011;13143;50.924;5.320;2023-05-18T08:03:04;28.42;;;5.75;;
25191;SDS011;13143;50.924;5.320;2023-05-18T08:05:37;18.65;;;5.82;;
25191;SDS011;13143;50.924;5.320;2023-05-18T08:08:07;16.98;;;5.15;;
25191;SDS011;13143;50.924;5.320;2023-05-18T08:10:45;20.00;;;5.60;;
25191;SDS011;13143;50.924;5.320;2023-05-18T08:13:26;15.40;;;5.32;;
25191;SDS011;13143;50.924;5.320;2023-05-18T08:16:04;17.05;;;5.53;;
25191;SDS011;13143;50.924;5.320;2023-05-18T08:18:39;18.02;;;5.70;;
25191;SDS011;13143;50.924;5.320;2023-05-18T08:21:15;17.02;;;5.47;;
25191;SDS011;13143;50.924;5.320;2023-05-18T08:23:48;16.67;;;5.17;;
25191;SDS011;13143;50.924;5.320;2023-05-18T08:26:20;18.58;;;4.55;;
25191;SDS011;13143;50.924;5.320;2023-05-18T08:29:12;14.77;;;3.80;;
25191;SDS011;13143;50.924;5.320;2023-05-18T08:31:51;14.48;;;3.70;;
25191;SDS011;13143;50.924;5.320;2023-05-18T08:34:17;12.52;;;4.72;;
25191;SDS011;13143;50.924;5.320;2023-05-18T08:37:03;16.83;;;4.05;;
25191;SDS011;13143;50.924;5.320;2023-05-18T08:39:38;18.85;;;4.55;;
25191;SDS011;13143;50.924;5.320;2023-05-18T08:45:39;12.18;;;4.55;;
25191;SDS011;13143;50.924;5.320;2023-05-18T08:48:22;15.25;;;4.40;;
25191;SDS011;13143;50.924;5.320;2023-05-18T08:54:03;13.55;;;4.50;;
25191;SDS011;13143;50.924;5.320;2023-05-18T08:56:33;16.93;;;4.40;;
25191;SDS011;13143;50.924;5.320;2023-05-18T08:59:02;20.58;;;4.43;;
25191;SDS011;13143;50.924;5.320;2023-05-18T09:01:41;13.80;;;4.63;;
25191;SDS011;13143;50.924;5.320;2023-05-18T09:07:06;15.52;;;5.18;;
25191;SDS011;13143;50.924;5.320;2023-05-18T09:09:36;13.27;;;4.22;;
25191;SDS011;13143;50.924;5.320;2023-05-18T09:12:12;20.45;;;4.50;;
25191;SDS011;13143;50.924;5.320;2023-05-18T09:14:44;19.05;;;4.45;;
25191;SDS011;13143;50.924;5.320;2023-05-18T09:17:23;17.25;;;4.38;;
25191;SDS011;13143;50.924;5.320;2023-05-18T09:20:01;15.88;;;4.55;;
25191;SDS011;13143;50.924;5.320;2023-05-18T09:22:31;15.10;;;4.57;;
25191;SDS011;13143;50.924;5.320;2023-05-18T09:25:19;17.23;;;5.18;;
25191;SDS011;13143;50.924;5.320;2023-05-18T09:27:57;18.67;;;5.13;;
25191;SDS011;13143;50.924;5.320;2023-05-18T09:30:27;16.95;;;5.13;;
25191;SDS011;13143;50.924;5.320;2023-05-18T09:33:04;19.80;;;5.68;;
25191;SDS011;13143;50.924;5.320;2023-05-18T09:38:26;16.77;;;5.10;;
25191;SDS011;13143;50.924;5.320;2023-05-18T09:40:58;18.02;;;5.18;;
25191;SDS011;13143;50.924;5.320;2023-05-18T09:43:28;16.75;;;4.55;;
25191;SDS011;13143;50.924;5.320;2023-05-18T09:46:11;17.00;;;4.63;;
25191;SDS011;13143;50.924;5.320;2023-05-18T09:48:41;17.90;;;5.50;;
25191;SDS011;13143;50.924;5.320;2023-05-18T09:51:13;18.33;;;4.93;;
25191;SDS011;13143;50.924;5.320;2023-05-18T09:53:51;12.20;;;4.40;;
25191;SDS011;13143;50.924;5.320;2023-05-18T09:56:25;17.70;;;5.63;;
25191;SDS011;13143;50.924;5.320;2023-05-18T09:58:52;20.65;;;5.57;;
25191;SDS011;13143;50.924;5.320;2023-05-18T10:01:18;17.77;;;4.90;;
25191;SDS011;13143;50.924;5.320;2023-05-18T10:03:45;21.08;;;5.97;;
25191;SDS011;13143;50.924;5.320;2023-05-18T10:06:14;18.77;;;5.07;;
25191;SDS011;13143;50.924;5.320;2023-05-18T10:08:45;11.18;;;5.28;;
25191;SDS011;13143;50.924;5.320;2023-05-18T10:11:14;18.15;;;5.07;;
25191;SDS011;13143;50.924;5.320;2023-05-18T10:13:44;16.35;;;4.65;;
25191;SDS011;13143;50.924;5.320;2023-05-18T10:16:11;18.90;;;5.63;;
25191;SDS011;13143;50.924;5.320;2023-05-18T10:18:40;16.92;;;5.88;;
25191;SDS011;13143;50.924;5.320;2023-05-18T10:21:10;17.52;;;6.25;;
25191;SDS011;13143;50.924;5.320;2023-05-18T10:23:44;18.25;;;6.53;;
25191;SDS011;13143;50.924;5.320;2023-05-18T10:26:28;19.90;;;7.05;;
25191;SDS011;13143;50.924;5.320;2023-05-18T10:29:11;18.83;;;7.63;;
25191;SDS011;13143;50.924;5.320;2023-05-18T10:31:44;13.40;;;6.30;;
25191;SDS011;13143;50.924;5.320;2023-05-18T10:34:31;22.00;;;7.20;;
25191;SDS011;13143;50.924;5.320;2023-05-18T10:36:58;19.67;;;6.63;;
25191;SDS011;13143;50.924;5.320;2023-05-18T10:39:35;18.33;;;8.88;;
25191;SDS011;13143;50.924;5.320;2023-05-18T10:42:05;15.95;;;6.70;;
25191;SDS011;13143;50.924;5.320;2023-05-18T10:47:27;20.77;;;6.78;;
25191;SDS011;13143;50.924;5.320;2023-05-18T10:50:04;22.05;;;7.00;;
25191;SDS011;13143;50.924;5.320;2023-05-18T10:52:43;18.90;;;6.88;;
25191;SDS011;13143;50.924;5.320;2023-05-18T10:55:14;22.90;;;6.57;;
25191;SDS011;13143;50.924;5.320;2023-05-18T10:58:02;14.10;;;6.30;;
25191;SDS011;13143;50.924;5.320;2023-05-18T11:00:35;19.05;;;5.30;;
25191;SDS011;13143;50.924;5.320;2023-05-18T11:03:16;19.50;;;8.30;;
25191;SDS011;13143;50.924;5.320;2023-05-18T11:05:47;19.27;;;6.65;;
25191;SDS011;13143;50.924;5.320;2023-05-18T11:08:31;15.93;;;6.45;;
25191;SDS011;13143;50.924;5.320;2023-05-18T11:11:01;16.80;;;5.75;;
25191;SDS011;13143;50.924;5.320;2023-05-18T11:13:42;18.25;;;5.90;;
25191;SDS011;13143;50.924;5.320;2023-05-18T11:16:31;21.75;;;6.65;;
25191;SDS011;13143;50.924;5.320;2023-05-18T11:19:06;21.83;;;6.43;;
25191;SDS011;13143;50.924;5.320;2023-05-18T11:24:19;14.50;;;6.03;;
25191;SDS011;13143;50.924;5.320;2023-05-18T11:32:20;21.63;;;6.60;;
25191;SDS011;13143;50.924;5.320;2023-05-18T11:34:50;15.98;;;6.07;;
25191;SDS011;13143;50.924;5.320;2023-05-18T11:40:03;15.27;;;7.65;;
25191;SDS011;13143;50.924;5.320;2023-05-18T11:42:58;16.88;;;6.38;;
25191;SDS011;13143;50.924;5.320;2023-05-18T11:45:36;19.15;;;7.25;;
25191;SDS011;13143;50.924;5.320;2023-05-18T11:48:26;15.88;;;6.55;;
25191;SDS011;13143;50.924;5.320;2023-05-18T11:50:56;16.38;;;6.72;;
25191;SDS011;13143;50.924;5.320;2023-05-18T11:53:26;19.58;;;7.25;;
25191;SDS011;13143;50.924;5.320;2023-05-18T11:55:54;18.95;;;7.00;;
25191;SDS011;13143;50.924;5.320;2023-05-18T11:58:24;18.00;;;7.47;;
25191;SDS011;13143;50.924;5.320;2023-05-18T12:00:50;19.38;;;7.45;;
25191;SDS011;13143;50.924;5.320;2023-05-18T12:03:18;22.25;;;8.02;;
25191;SDS011;13143;50.924;5.320;2023-05-18T12:05:51;17.48;;;7.28;;
25191;SDS011;13143;50.924;5.320;2023-05-18T12:08:27;21.75;;;7.18;;
25191;SDS011;13143;50.924;5.320;2023-05-18T12:10:54;13.45;;;6.15;;
25191;SDS011;13143;50.924;5.320;2023-05-18T12:13:29;18.67;;;6.57;;
25191;SDS011;13143;50.924;5.320;2023-05-18T12:16:11;14.85;;;6.45;;
25191;SDS011;13143;50.924;5.320;2023-05-18T12:18:47;19.33;;;6.50;;
25191;SDS011;13143;50.924;5.320;2023-05-18T12:21:20;18.95;;;6.05;;
25191;SDS011;13143;50.924;5.320;2023-05-18T12:23:59;16.37;;;5.40;;
25191;SDS011;13143;50.924;5.320;2023-05-18T12:26:29;20.20;;;6.00;;
25191;SDS011;13143;50.924;5.320;2023-05-18T12:29:14;13.50;;;6.10;;
25191;SDS011;13143;50.924;5.320;2023-05-18T12:31:53;22.20;;;6.65;;
25191;SDS011;13143;50.924;5.320;2023-05-18T12:34:38;15.75;;;5.80;;
25191;SDS011;13143;50.924;5.320;2023-05-18T12:37:13;15.65;;;6.00;;
25191;SDS011;13143;50.924;5.320;2023-05-18T12:39:50;18.48;;;5.95;;
25191;SDS011;13143;50.924;5.320;2023-05-18T12:42:21;20.88;;;5.63;;
25191;SDS011;13143;50.924;5.320;2023-05-18T12:45:05;15.88;;;6.38;;
25191;SDS011;13143;50.924;5.320;2023-05-18T12:47:41;19.65;;;6.07;;
25191;SDS011;13143;50.924;5.320;2023-05-18T12:50:13;21.80;;;7.10;;
25191;SDS011;13143;50.924;5.320;2023-05-18T12:52:47;20.08;;;6.78;;
25191;SDS011;13143;50.924;5.320;2023-05-18T12:55:19;17.63;;;6.00;;
25191;SDS011;13143;50.924;5.320;2023-05-18T13:00:37;18.13;;;6.07;;
25191;SDS011;13143;50.924;5.320;2023-05-18T13:03:10;16.95;;;5.38;;
25191;SDS011;13143;50.924;5.320;2023-05-18T13:06:03;14.15;;;5.65;;
25191;SDS011;13143;50.924;5.320;2023-05-18T13:08:31;18.88;;;6.28;;
25191;SDS011;13143;50.924;5.320;2023-05-18T13:11:06;16.45;;;5.90;;
25191;SDS011;13143;50.924;5.320;2023-05-18T13:13:42;21.33;;;5.93;;
25191;SDS011;13143;50.924;5.320;2023-05-18T13:16:26;17.08;;;5.88;;
25191;SDS011;13143;50.924;5.320;2023-05-18T13:18:58;21.42;;;5.68;;
25191;SDS011;13143;50.924;5.320;2023-05-18T13:21:35;20.85;;;6.22;;
25191;SDS011;13143;50.924;5.320;2023-05-18T13:24:09;15.02;;;5.07;;
25191;SDS011;13143;50.924;5.320;2023-05-18T13:26:41;16.17;;;5.43;;
25191;SDS011;13143;50.924;5.320;2023-05-18T13:29:26;16.50;;;5.05;;
25191;SDS011;13143;50.924;5.320;2023-05-18T13:32:02;22.67;;;5.63;;
25191;SDS011;13143;50.924;5.320;2023-05-18T13:34:37;18.15;;;5.20;;
25191;SDS011;13143;50.924;5.320;2023-05-18T13:37:04;19.85;;;5.88;;
25191;SDS011;13143;50.924;5.320;2023-05-18T13:39:51;14.45;;;5.13;;
25191;SDS011;13143;50.924;5.320;2023-05-18T13:42:17;16.75;;;5.38;;
25191;SDS011;13143;50.924;5.320;2023-05-18T13:44:47;13.40;;;4.93;;
25191;SDS011;13143;50.924;5.320;2023-05-18T13:47:17;21.23;;;6.45;;
25191;SDS011;13143;50.924;5.320;2023-05-18T13:49:44;17.23;;;5.93;;
25191;SDS011;13143;50.924;5.320;2023-05-18T13:52:25;23.30;;;6.07;;
25191;SDS011;13143;50.924;5.320;2023-05-18T13:54:51;19.05;;;5.88;;
25191;SDS011;13143;50.924;5.320;2023-05-18T13:57:24;13.27;;;5.43;;
25191;SDS011;13143;50.924;5.320;2023-05-18T13:59:55;16.52;;;5.05;;
25191;SDS011;13143;50.924;5.320;2023-05-18T14:02:31;19.85;;;6.65;;
25191;SDS011;13143;50.924;5.320;2023-05-18T14:04:57;10.98;;;4.63;;
25191;SDS011;13143;50.924;5.320;2023-05-18T14:07:24;17.27;;;6.13;;
25191;SDS011;13143;50.924;5.320;2023-05-18T14:09:50;22.90;;;6.35;;
25191;SDS011;13143;50.924;5.320;2023-05-18T14:12:17;17.05;;;5.97;;
25191;SDS011;13143;50.924;5.320;2023-05-18T14:14:46;16.27;;;4.93;;
25191;SDS011;13143;50.924;5.320;2023-05-18T14:17:33;22.92;;;6.15;;
25191;SDS011;13143;50.924;5.320;2023-05-18T14:20:11;17.25;;;5.43;;
25191;SDS011;13143;50.924;5.320;2023-05-18T14:22:41;18.27;;;6.72;;
25191;SDS011;13143;50.924;5.320;2023-05-18T14:25:13;14.63;;;5.00;;
25191;SDS011;13143;50.924;5.320;2023-05-18T14:27:42;16.95;;;5.13;;
25191;SDS011;13143;50.924;5.320;2023-05-18T14:30:11;19.05;;;4.70;;
25191;SDS011;13143;50.924;5.320;2023-05-18T14:32:37;18.58;;;4.25;;
25191;SDS011;13143;50.924;5.320;2023-05-18T14:35:04;15.60;;;4.95;;
25191;SDS011;13143;50.924;5.320;2023-05-18T14:37:34;14.38;;;4.50;;
25191;SDS011;13143;50.924;5.320;2023-05-18T14:40:23;16.77;;;4.80;;
25191;SDS011;13143;50.924;5.320;2023-05-18T14:42:52;12.50;;;4.53;;
25191;SDS011;13143;50.924;5.320;2023-05-18T14:45:21;11.40;;;4.53;;
25191;SDS011;13143;50.924;5.320;2023-05-18T14:47:59;14.10;;;4.93;;
25191;SDS011;13143;50.924;5.320;2023-05-18T14:50:44;19.92;;;5.07;;
25191;SDS011;13143;50.924;5.320;2023-05-18T14:53:10;15.63;;;5.20;;
25191;SDS011;13143;50.924;5.320;2023-05-18T14:55:42;10.48;;;5.07;;
25191;SDS011;13143;50.924;5.320;2023-05-18T14:58:15;13.43;;;5.10;;
25191;SDS011;13143;50.924;5.320;2023-05-18T15:00:47;19.60;;;5.55;;
25191;SDS011;13143;50.924;5.320;2023-05-18T15:03:34;18.55;;;5.05;;
25191;SDS011;13143;50.924;5.320;2023-05-18T15:06:18;20.77;;;6.10;;
25191;SDS011;13143;50.924;5.320;2023-05-18T15:08:51;17.23;;;4.90;;
25191;SDS011;13143;50.924;5.320;2023-05-18T15:11:20;13.95;;;4.65;;
25191;SDS011;13143;50.924;5.320;2023-05-18T15:13:56;17.15;;;5.28;;
25191;SDS011;13143;50.924;5.320;2023-05-18T15:16:28;17.25;;;5.03;;
25191;SDS011;13143;50.924;5.320;2023-05-18T15:19:00;13.30;;;4.43;;
25191;SDS011;13143;50.924;5.320;2023-05-18T15:21:39;14.35;;;4.63;;
25191;SDS011;13143;50.924;5.320;2023-05-18T15:24:23;13.63;;;4.28;;
25191;SDS011;13143;50.924;5.320;2023-05-18T15:26:55;14.77;;;5.00;;
25191;SDS011;13143;50.924;5.320;2023-05-18T15:29:33;16.75;;;5.05;;
25191;SDS011;13143;50.924;5.320;2023-05-18T15:32:02;19.30;;;4.95;;
25191;SDS011;13143;50.924;5.320;2023-05-18T15:34:29;17.02;;;5.70;;
25191;SDS011;13143;50.924;5.320;2023-05-18T15:37:01;13.60;;;4.23;;
25191;SDS011;13143;50.924;5.320;2023-05-18T15:39:28;14.32;;;4.90;;
25191;SDS011;13143;50.924;5.320;2023-05-18T15:41:55;18.42;;;4.70;;
25191;SDS011;13143;50.924;5.320;2023-05-18T15:44:22;16.63;;;5.43;;
25191;SDS011;13143;50.924;5.320;2023-05-18T15:46:48;20.38;;;4.85;;
25191;SDS011;13143;50.924;5.320;2023-05-18T15:49:15;14.90;;;4.60;;
25191;SDS011;13143;50.924;5.320;2023-05-18T15:52:04;11.82;;;4.57;;
25191;SDS011;13143;50.924;5.320;2023-05-18T15:54:31;13.70;;;4.50;;
25191;SDS011;13143;50.924;5.320;2023-05-18T15:57:04;12.30;;;4.60;;
25191;SDS011;13143;50.924;5.320;2023-05-18T15:59:36;13.95;;;4.78;;
25191;SDS011;13143;50.924;5.320;2023-05-18T16:02:22;13.23;;;4.47;;